createdAt,value
2022-07-25T00:04:04.818Z,101016.75
2022-07-25T00:09:02.105Z,101011.66
2022-07-25T00:13:59.189Z,100984.22
2022-07-25T00:18:56.771Z,100974.19
2022-07-25T00:23:54.029Z,100953.25
2022-07-25T00:28:54.347Z,100955.84
2022-07-25T00:33:51.274Z,100968.28
2022-07-25T00:38:49.151Z,100966.25
2022-07-25T00:43:46.386Z,100969.22
2022-07-25T00:48:43.646Z,100994.56
2022-07-25T00:53:40.514Z,101015.72
2022-07-25T00:58:38.143Z,101013.00
2022-07-25T01:03:35.254Z,101015.81
2022-07-25T01:08:32.273Z,101022.56
2022-07-25T01:13:31.886Z,101019.63
2022-07-25T01:18:29.529Z,101012.59
2022-07-25T01:23:29.803Z,101002.28
2022-07-25T01:28:28.681Z,101005.00
2022-07-25T01:33:25.668Z,101019.19
2022-07-25T01:38:22.473Z,101006.44
2022-07-25T01:43:20.107Z,101006.19
2022-07-25T01:48:19.921Z,100998.66
2022-07-25T01:53:17.096Z,100990.53
2022-07-25T01:58:14.194Z,101002.00
2022-07-25T02:03:30.277Z,101002.78
2022-07-25T02:08:27.543Z,101000.84
2022-07-25T02:13:26.761Z,101003.25
2022-07-25T02:18:25.057Z,101007.72
2022-07-25T02:23:22.244Z,101014.41
2022-07-25T02:28:19.207Z,101020.19
2022-07-25T02:33:18.500Z,101017.16
2022-07-25T02:38:19.258Z,101013.66
2022-07-25T02:43:32.596Z,101013.84
2022-07-25T02:48:29.726Z,101010.94
2022-07-25T02:53:54.384Z,101015.94
2022-07-25T02:58:44.585Z,101003.13
2022-07-25T03:03:46.624Z,101011.81
2022-07-25T03:08:44.447Z,101006.59
2022-07-25T03:13:43.288Z,101017.00
2022-07-25T03:18:40.163Z,101000.00
2022-07-25T03:23:40.161Z,100999.53
2022-07-25T03:28:38.030Z,101007.63
2022-07-25T03:33:35.100Z,101031.88
2022-07-25T03:38:32.055Z,101036.13
2022-07-25T03:43:31.597Z,101037.88
2022-07-25T03:48:29.505Z,101036.72
2022-07-25T03:53:26.531Z,101018.16
2022-07-25T03:58:23.699Z,101038.88
2022-07-25T04:03:29.856Z,101042.06
2022-07-25T04:08:27.509Z,101040.75
2022-07-25T04:13:24.579Z,101042.41
2022-07-25T04:18:25.205Z,101043.09
2022-07-25T04:23:25.841Z,101033.03
2022-07-25T04:28:23.468Z,101048.34
2022-07-25T04:33:22.593Z,101040.50
2022-07-25T04:38:19.624Z,101054.84
2022-07-25T04:43:17.158Z,101044.06
2022-07-25T04:48:14.872Z,101044.69
2022-07-25T04:53:11.793Z,101042.09
2022-07-25T04:58:10.358Z,101033.97
2022-07-25T05:03:08.826Z,101057.09
2022-07-25T05:08:06.647Z,101057.59
2022-07-25T05:13:03.738Z,101061.72
2022-07-25T05:18:03.688Z,101074.91
2022-07-25T05:23:00.779Z,101076.00
2022-07-25T05:27:59.136Z,101062.44
2022-07-25T05:32:56.152Z,101074.56
2022-07-25T05:37:57.765Z,101088.91
2022-07-25T05:43:20.848Z,101088.63
2022-07-25T05:48:55.582Z,101085.69
2022-07-25T05:53:56.274Z,101086.09
2022-07-25T05:59:02.848Z,101085.69
2022-07-25T06:04:05.059Z,101078.53
2022-07-25T06:09:19.561Z,101066.63
2022-07-25T06:14:18.681Z,101074.75
2022-07-25T06:19:18.407Z,101068.50
2022-07-25T06:24:16.070Z,101081.94
2022-07-25T06:29:14.316Z,101087.69
2022-07-25T06:34:11.532Z,101081.81
2022-07-25T06:39:12.800Z,101093.28
2022-07-25T06:44:14.831Z,101090.38
2022-07-25T06:49:12.199Z,101093.47
2022-07-25T06:54:11.103Z,101101.00
2022-07-25T06:59:11.509Z,101098.75
2022-07-25T07:04:23.917Z,101099.94
2022-07-25T07:09:28.547Z,101103.31
2022-07-25T07:14:26.960Z,101105.53
2022-07-25T07:19:27.402Z,101094.47
2022-07-25T07:24:26.503Z,101089.22
2022-07-25T07:29:27.020Z,101108.16
2022-07-25T07:34:29.855Z,101109.19
2022-07-25T07:39:29.534Z,101115.28
2022-07-25T07:44:26.547Z,101105.50
2022-07-25T07:49:24.653Z,101116.34
2022-07-25T07:54:41.666Z,101117.41
2022-07-25T07:59:41.196Z,101106.38
2022-07-25T08:04:41.491Z,101108.22
2022-07-25T08:09:39.324Z,101106.38
2022-07-25T08:14:56.235Z,101098.84
2022-07-25T08:20:27.586Z,101109.00
2022-07-25T08:25:22.924Z,101102.53
2022-07-25T08:30:20.521Z,101098.81
2022-07-25T08:35:19.371Z,101105.28
2022-07-25T08:40:18.437Z,101104.63
2022-07-25T08:45:26.682Z,101096.38
2022-07-25T08:50:42.963Z,101095.84
2022-07-25T08:55:45.732Z,101096.00
2022-07-25T09:00:52.778Z,101094.47
2022-07-25T09:05:50.337Z,101098.78
2022-07-25T09:10:52.357Z,101088.53
2022-07-25T09:15:50.067Z,101074.88
2022-07-25T09:20:48.635Z,101074.38
2022-07-25T09:25:45.652Z,101072.72
2022-07-25T09:31:04.929Z,101064.09
2022-07-25T09:36:14.435Z,101061.91
2022-07-25T09:41:17.649Z,101068.31
2022-07-25T09:46:30.018Z,101069.81
2022-07-25T09:51:27.349Z,101062.91
2022-07-25T09:56:26.932Z,101072.72
2022-07-25T10:01:37.303Z,101061.91
2022-07-25T10:06:41.348Z,101055.66
2022-07-25T10:11:40.598Z,101053.28
2022-07-25T10:16:49.655Z,101056.47
2022-07-25T10:21:54.697Z,101039.91
2022-07-25T10:26:52.555Z,101044.78
2022-07-25T10:31:53.126Z,101037.69
2022-07-25T10:36:51.254Z,101035.84
2022-07-25T10:41:51.833Z,101034.38
2022-07-25T10:46:49.780Z,101024.00
2022-07-25T10:52:02.574Z,101013.03
2022-07-25T10:56:59.968Z,101010.25
2022-07-25T11:01:57.020Z,101012.47
2022-07-25T11:06:57.446Z,100996.00
2022-07-25T11:11:55.865Z,101000.81
2022-07-25T11:16:55.566Z,100991.28
2022-07-25T11:21:54.113Z,100991.28
2022-07-25T11:26:52.309Z,100980.22
2022-07-25T11:31:53.606Z,100970.03
2022-07-25T11:36:56.699Z,100968.34
2022-07-25T11:42:04.824Z,100957.41
2022-07-25T11:47:03.477Z,100961.25
2022-07-25T11:52:04.598Z,100947.88
2022-07-25T11:57:01.654Z,100948.38
2022-07-25T12:02:03.538Z,100944.06
2022-07-25T12:07:04.637Z,100942.59
2022-07-25T12:12:03.087Z,100937.00
2022-07-25T12:17:03.697Z,100930.22
2022-07-25T12:22:00.682Z,100927.00
2022-07-25T12:26:57.661Z,100918.66
2022-07-25T12:31:55.027Z,100906.47
2022-07-25T12:36:55.751Z,100908.97
2022-07-25T12:41:53.779Z,100908.03
2022-07-25T12:47:03.845Z,100895.34
2022-07-25T12:52:01.609Z,100899.56
2022-07-25T12:56:58.679Z,100880.63
2022-07-25T13:01:57.657Z,100882.81
2022-07-25T13:07:02.761Z,100878.53
2022-07-25T13:12:01.594Z,100872.06
2022-07-25T13:22:29.771Z,100856.69
2022-07-25T13:27:28.152Z,100865.81
2022-07-25T13:32:37.360Z,100850.38
2022-07-25T13:37:37.054Z,100852.88
2022-07-25T13:42:34.816Z,100859.13
2022-07-25T13:47:36.620Z,100847.03
2022-07-25T13:52:37.361Z,100840.78
2022-07-25T13:57:51.974Z,100836.22
2022-07-25T14:02:52.563Z,100819.56
2022-07-25T14:07:51.986Z,100831.34
2022-07-25T14:12:56.302Z,100825.03
2022-07-25T14:17:57.683Z,100820.25
2022-07-25T14:22:55.368Z,100816.13
2022-07-25T14:27:55.777Z,100812.66
2022-07-25T14:33:02.094Z,100802.03
2022-07-25T14:38:01.680Z,100809.88
2022-07-25T14:43:13.095Z,100793.09
2022-07-25T14:53:42.301Z,100786.06
2022-07-25T14:58:55.436Z,100784.28
2022-07-25T15:03:57.122Z,100780.22
2022-07-25T15:09:03.094Z,100787.06
2022-07-25T15:14:12.335Z,100783.81
2022-07-25T15:19:18.216Z,100774.44
2022-07-25T15:25:06.352Z,100763.41
2022-07-25T15:30:14.578Z,100758.34
2022-07-25T15:41:48.247Z,100756.94
2022-07-25T15:47:30.220Z,100752.34
2022-07-25T15:58:36.589Z,100749.81
2022-07-25T16:03:43.275Z,100744.19
2022-07-25T16:09:01.402Z,100743.38
2022-07-25T16:14:05.002Z,100743.06
2022-07-25T16:19:07.377Z,100738.72
2022-07-25T16:24:21.814Z,100749.69
2022-07-25T16:34:43.853Z,100746.03
2022-07-25T16:39:49.608Z,100746.63
2022-07-25T16:44:49.756Z,100749.50
2022-07-25T16:50:00.333Z,100751.56
2022-07-25T16:55:00.379Z,100750.75
2022-07-25T17:00:02.856Z,100745.97
2022-07-25T17:05:12.018Z,100742.44
2022-07-25T17:10:12.100Z,100743.16
2022-07-25T17:15:17.143Z,100751.97
2022-07-25T17:20:30.616Z,100755.44
2022-07-25T17:25:50.631Z,100760.31
2022-07-25T17:30:51.356Z,100758.75
2022-07-25T17:41:24.492Z,100762.44
2022-07-25T17:46:35.480Z,100762.50
2022-07-25T17:51:42.285Z,100757.59
2022-07-25T17:56:44.976Z,100757.19
2022-07-25T18:02:35.154Z,100768.91
2022-07-25T18:14:25.955Z,100758.38
2022-07-25T18:19:59.269Z,100768.50
2022-07-25T18:25:24.132Z,100773.38
2022-07-25T18:30:52.036Z,100767.78
2022-07-25T18:36:27.145Z,100778.88
2022-07-25T18:53:29.619Z,100777.72
2022-07-25T18:59:07.712Z,100775.53
2022-07-25T19:10:07.807Z,100777.31
2022-07-25T19:15:28.898Z,100782.56
2022-07-25T19:20:38.615Z,100789.91
2022-07-25T19:26:39.198Z,100784.84
2022-07-25T19:32:10.998Z,100785.44
2022-07-25T19:37:17.745Z,100778.97
2022-07-25T19:42:32.248Z,100781.75
2022-07-25T19:47:41.158Z,100780.84
2022-07-25T19:52:48.326Z,100769.47
2022-07-25T19:57:57.243Z,100784.28
2022-07-25T20:03:01.669Z,100779.22
2022-07-25T20:08:34.908Z,100771.34
2022-07-25T20:13:32.618Z,100778.84
2022-07-25T20:18:45.643Z,100787.00
2022-07-25T20:24:09.813Z,100786.59
2022-07-25T20:29:29.140Z,100780.16
2022-07-25T20:34:34.411Z,100786.78
2022-07-25T20:39:38.332Z,100789.66
2022-07-25T20:44:39.342Z,100774.03
2022-07-25T20:49:54.731Z,100788.06
2022-07-25T20:55:06.848Z,100787.06
2022-07-25T21:00:55.742Z,100789.69
2022-07-25T21:06:05.840Z,100801.63
2022-07-25T21:11:10.896Z,100797.72
2022-07-25T21:16:08.161Z,100807.84
2022-07-25T21:21:28.801Z,100802.75
2022-07-25T21:26:55.996Z,100797.81
2022-07-25T21:32:12.053Z,100786.00
2022-07-25T21:37:09.629Z,100784.84
2022-07-25T21:42:23.160Z,100793.16
2022-07-25T21:47:20.109Z,100791.88
2022-07-25T21:52:30.385Z,100782.63
2022-07-25T21:57:41.947Z,100783.53
2022-07-25T22:03:02.812Z,100780.50
2022-07-25T22:08:04.496Z,100779.09
2022-07-25T22:13:13.526Z,100779.56
2022-07-25T22:18:14.510Z,100772.09
2022-07-25T22:23:15.039Z,100764.47
2022-07-25T22:28:20.667Z,100762.94
2022-07-25T22:33:29.401Z,100768.38
2022-07-25T22:38:26.542Z,100764.06
2022-07-25T22:43:56.717Z,100745.03
2022-07-25T22:49:01.901Z,100758.03
2022-07-25T22:54:19.752Z,100760.91
2022-07-25T22:59:18.868Z,100752.47
2022-07-25T23:04:29.933Z,100751.81
2022-07-25T23:09:36.011Z,100757.44
2022-07-25T23:14:42.985Z,100742.75
2022-07-25T23:20:09.055Z,100749.69
2022-07-25T23:25:07.976Z,100746.38
2022-07-25T23:30:17.096Z,100741.41
2022-07-25T23:35:32.071Z,100746.53
2022-07-25T23:40:43.103Z,100741.81
2022-07-25T23:45:53.607Z,100742.22
2022-07-25T23:51:06.960Z,100735.97
2022-07-25T23:56:21.108Z,100736.72
